Time;durP1;ratioP1;P1;durP2;ratioP2;P2;SDS_P1;SDS_P2;PMS_P1;PMS_P2;Temp;Humidity;BMP_temperature;BMP_pressure;BME280_temperature;BME280_humidity;BME280_pressure;Samples;Min_cycle;Max_cycle;Signal;HPM_P1;HPM_P2
2022/10/07 00:00:59;;;;;;;11.15;7.70;;;23.80;50.30;;;;;;5030257;28;20390;-62
2022/10/07 00:03:27;;;;;;;10.43;7.25;;;23.80;50.30;;;;;;5029640;28;20395;-62
2022/10/07 00:06:04;;;;;;;9.88;7.50;;;23.80;50.30;;;;;;5029856;28;20241;-62
2022/10/07 00:08:34;;;;;;;10.90;7.72;;;23.80;50.30;;;;;;5029549;28;20448;-62
2022/10/07 00:11:07;;;;;;;9.68;7.40;;;23.80;50.30;;;;;;5029614;28;20056;-62
2022/10/07 00:13:37;;;;;;;8.90;6.85;;;23.80;50.30;;;;;;5029692;28;20045;-62
2022/10/07 00:16:19;;;;;;;9.63;7.22;;;23.80;50.30;;;;;;5029880;28;20053;-62
2022/10/07 00:18:50;;;;;;;9.85;7.30;;;23.80;50.40;;;;;;5024803;28;20506;-62
2022/10/07 00:21:19;;;;;;;11.20;7.28;;;23.80;50.40;;;;;;5029946;28;20046;-62
2022/10/07 00:23:47;;;;;;;9.27;7.13;;;23.80;50.40;;;;;;5029335;28;20053;-62
2022/10/07 00:26:16;;;;;;;9.68;7.47;;;23.80;50.40;;;;;;5029654;28;20490;-62
2022/10/07 00:28:44;;;;;;;10.05;7.00;;;23.80;50.40;;;;;;5029166;28;20049;-62
2022/10/07 00:31:17;;;;;;;11.27;6.97;;;23.80;50.40;;;;;;5028186;28;20588;-62
2022/10/07 00:33:44;;;;;;;9.52;7.25;;;23.80;50.40;;;;;;5029464;28;20045;-62
2022/10/07 00:36:18;;;;;;;8.32;6.63;;;23.80;50.40;;;;;;5029318;28;20045;-62
2022/10/07 00:38:50;;;;;;;9.25;6.82;;;23.80;50.40;;;;;;5029346;28;20473;-62
2022/10/07 00:41:20;;;;;;;10.10;7.03;;;23.80;50.40;;;;;;5029228;28;20475;-62
2022/10/07 00:43:48;;;;;;;11.15;7.15;;;23.80;50.50;;;;;;5029145;28;20053;-62
2022/10/07 00:46:35;;;;;;;8.13;6.55;;;23.70;50.40;;;;;;5029388;28;20049;-62
2022/10/07 00:49:09;;;;;;;12.30;6.75;;;23.80;50.40;;;;;;5028887;28;20057;-62
2022/10/07 00:51:37;;;;;;;8.45;6.28;;;23.70;50.40;;;;;;5023719;28;20045;-62
2022/10/07 00:54:10;;;;;;;11.73;7.63;;;23.80;50.40;;;;;;5028484;28;20072;-62
2022/10/07 00:56:39;;;;;;;8.82;5.97;;;23.80;50.40;;;;;;5029311;28;20075;-62
2022/10/07 00:59:07;;;;;;;9.30;6.72;;;23.70;50.40;;;;;;5028563;28;20053;-62
2022/10/07 01:01:34;;;;;;;8.35;6.30;;;23.80;50.40;;;;;;5029127;28;20054;-62
2022/10/07 01:04:02;;;;;;;11.27;6.97;;;23.80;50.40;;;;;;5028848;28;20053;-62
2022/10/07 01:06:29;;;;;;;9.20;6.32;;;23.80;50.30;;;;;;5028471;28;20052;-62
2022/10/07 01:08:56;;;;;;;8.85;6.38;;;23.70;50.30;;;;;;5028718;28;20054;-62
2022/10/07 01:11:55;;;;;;;8.52;5.95;;;23.70;50.30;;;;;;5028407;28;20498;-62
2022/10/07 01:14:40;;;;;;;9.93;6.97;;;23.80;50.30;;;;;;5029039;28;20197;-62
2022/10/07 01:17:28;;;;;;;8.63;6.35;;;23.70;50.30;;;;;;5028335;28;20052;-62
2022/10/07 01:20:24;;;;;;;7.60;5.90;;;23.70;50.30;;;;;;5028276;28;20049;-62
2022/10/07 01:23:31;;;;;;;8.10;5.45;;;23.70;50.30;;;;;;5023884;28;20060;-62
2022/10/07 01:26:18;;;;;;;7.93;6.07;;;23.70;50.30;;;;;;5028510;28;20046;-62
2022/10/07 01:29:08;;;;;;;8.25;6.15;;;23.70;50.30;;;;;;5012400;28;20054;-62
2022/10/07 01:31:41;;;;;;;9.00;6.40;;;23.70;50.30;;;;;;5008507;28;20049;-63
2022/10/07 01:34:11;;;;;;;8.00;6.78;;;23.70;50.30;;;;;;5007750;28;20049;-62
2022/10/07 01:36:40;;;;;;;7.82;5.93;;;23.70;50.30;;;;;;5008205;28;20053;-62
2022/10/07 01:39:11;;;;;;;9.88;6.07;;;23.70;50.30;;;;;;5008665;28;20073;-62
2022/10/07 01:41:40;;;;;;;8.80;6.43;;;23.70;50.90;;;;;;5008657;28;20045;-62
2022/10/07 01:44:09;;;;;;;8.25;5.65;;;23.70;50.30;;;;;;5012727;28;20095;-62
2022/10/07 01:46:36;;;;;;;8.32;5.85;;;23.70;50.30;;;;;;5018135;28;20050;-64
2022/10/07 01:49:05;;;;;;;7.78;5.50;;;23.70;50.30;;;;;;5016516;28;20058;-62
2022/10/07 01:51:39;;;;;;;7.10;5.80;;;23.70;50.30;;;;;;5019783;28;20042;-62
2022/10/07 01:54:46;;;;;;;9.20;6.55;;;23.70;50.30;;;;;;5014035;28;20038;-62
2022/10/07 01:57:42;;;;;;;7.85;5.43;;;23.70;50.90;;;;;;5019636;28;20049;-62
2022/10/07 02:00:11;;;;;;;7.22;5.68;;;23.70;50.40;;;;;;5009646;28;20053;-62
2022/10/07 02:02:57;;;;;;;7.22;5.60;;;23.70;50.30;;;;;;5007829;28;20065;-62
2022/10/07 02:05:48;;;;;;;6.78;6.00;;;23.60;50.30;;;;;;5007714;28;20254;-62
2022/10/07 02:08:30;;;;;;;8.45;5.80;;;23.60;50.30;;;;;;5007681;28;20061;-62
2022/10/07 02:11:19;;;;;;;7.78;5.45;;;23.60;50.30;;;;;;5007751;28;20046;-62
2022/10/07 02:13:55;;;;;;;7.07;5.15;;;23.70;50.30;;;;;;5012125;28;20042;-62
2022/10/07 02:16:32;;;;;;;7.35;5.78;;;23.60;50.30;;;;;;5012169;28;20549;-62
2022/10/07 02:19:05;;;;;;;7.20;5.63;;;23.60;50.30;;;;;;5012135;28;20058;-62
2022/10/07 02:21:35;;;;;;;7.93;5.10;;;23.60;50.30;;;;;;5012278;28;20504;-62
2022/10/07 02:24:03;;;;;;;8.05;5.72;;;23.60;50.30;;;;;;5011923;28;20493;-62
2022/10/07 02:26:33;;;;;;;6.97;6.00;;;23.60;50.30;;;;;;5010842;28;20413;-62
2022/10/07 02:29:03;;;;;;;8.80;5.68;;;23.60;50.30;;;;;;5009048;28;20050;-62
2022/10/07 02:31:32;;;;;;;6.55;5.32;;;23.60;50.40;;;;;;5011886;28;20413;-62
2022/10/07 02:34:02;;;;;;;7.32;5.85;;;23.60;50.40;;;;;;5011798;28;20054;-62
2022/10/07 02:36:38;;;;;;;8.05;5.25;;;23.60;50.40;;;;;;5011777;28;20466;-62
2022/10/07 02:39:07;;;;;;;6.70;4.93;;;23.60;50.40;;;;;;5011650;28;20055;-62
2022/10/07 02:42:03;;;;;;;7.55;5.50;;;23.60;50.40;;;;;;5011361;28;20541;-62
2022/10/07 02:44:54;;;;;;;6.88;4.78;;;23.60;50.40;;;;;;5011633;28;20413;-62
2022/10/07 02:47:30;;;;;;;6.05;4.55;;;23.60;51.00;;;;;;5011540;28;20457;-62
2022/10/07 02:50:01;;;;;;;6.28;5.20;;;23.60;50.40;;;;;;5011633;28;20057;-62
2022/10/07 02:52:30;;;;;;;7.18;5.00;;;23.60;50.40;;;;;;5011432;28;20541;-62
2022/10/07 02:55:08;;;;;;;7.32;5.25;;;23.60;50.40;;;;;;5010932;28;20413;-62
2022/10/07 02:57:43;;;;;;;6.43;4.90;;;23.60;50.40;;;;;;5011684;28;20046;-62
2022/10/07 03:00:13;;;;;;;6.25;5.28;;;23.60;50.40;;;;;;5006954;28;20267;-62
2022/10/07 03:02:57;;;;;;;6.20;5.00;;;23.60;50.40;;;;;;5011240;28;20056;-62
2022/10/07 03:05:25;;;;;;;5.45;4.70;;;23.60;50.30;;;;;;5011555;28;20053;-62
2022/10/07 03:08:00;;;;;;;7.68;5.38;;;23.60;50.30;;;;;;5011357;28;20403;-62
2022/10/07 03:10:27;;;;;;;5.57;4.60;;;23.60;50.30;;;;;;5011080;28;20061;-62
2022/10/07 03:12:55;;;;;;;7.35;4.93;;;23.60;50.30;;;;;;5010293;28;20050;-62
2022/10/07 03:15:22;;;;;;;6.90;5.15;;;23.60;50.30;;;;;;5010504;28;20405;-62
2022/10/07 03:17:50;;;;;;;5.38;4.43;;;23.60;50.20;;;;;;5009787;28;20050;-62
2022/10/07 03:20:17;;;;;;;7.13;5.45;;;23.60;50.20;;;;;;5010618;28;20352;-62
2022/10/07 03:22:44;;;;;;;5.38;4.72;;;23.60;50.20;;;;;;5010353;28;20536;-62
2022/10/07 03:25:12;;;;;;;6.45;4.97;;;23.60;50.20;;;;;;5010914;28;20054;-62
2022/10/07 03:27:41;;;;;;;4.90;4.40;;;23.60;50.20;;;;;;5010810;28;20239;-62
2022/10/07 03:30:09;;;;;;;6.50;4.85;;;23.60;50.20;;;;;;5008673;28;20104;-62
2022/10/07 03:32:38;;;;;;;5.97;4.65;;;23.50;50.20;;;;;;5008725;28;20056;-62
2022/10/07 03:35:06;;;;;;;6.57;4.28;;;23.60;50.20;;;;;;5009492;28;20053;-62
2022/10/07 03:37:33;;;;;;;5.80;4.88;;;23.60;50.20;;;;;;5010516;28;20064;-62
2022/10/07 03:40:00;;;;;;;5.32;4.03;;;23.60;50.20;;;;;;5010097;28;20049;-62
2022/10/07 03:42:27;;;;;;;6.07;5.10;;;23.50;50.20;;;;;;5009661;28;20125;-62
2022/10/07 03:44:54;;;;;;;6.30;4.72;;;23.50;50.20;;;;;;5010171;28;20057;-62
2022/10/07 03:47:21;;;;;;;5.82;4.15;;;23.50;50.20;;;;;;4999861;28;20054;-62
2022/10/07 03:49:48;;;;;;;5.53;4.45;;;23.50;50.20;;;;;;5007815;28;20127;-62
2022/10/07 03:52:15;;;;;;;5.57;4.65;;;23.50;50.80;;;;;;5010169;28;20060;-62
2022/10/07 03:54:42;;;;;;;5.55;4.53;;;23.50;50.20;;;;;;5008759;28;20050;-62
2022/10/07 03:59:57;;;;;;;5.93;4.70;;;23.50;50.20;;;;;;5009893;28;20054;-62
2022/10/07 04:02:24;;;;;;;6.43;4.47;;;23.50;50.20;;;;;;5005455;28;20050;-62
2022/10/07 04:04:51;;;;;;;4.70;4.20;;;23.50;50.30;;;;;;5009561;28;20054;-62
2022/10/07 04:07:20;;;;;;;8.10;4.57;;;23.50;50.30;;;;;;5009060;28;20100;-62
2022/10/07 04:09:48;;;;;;;5.53;4.53;;;23.50;50.30;;;;;;5009669;28;20046;-62
2022/10/07 04:12:15;;;;;;;5.53;4.45;;;23.50;50.30;;;;;;5009889;28;20050;-62
2022/10/07 04:14:42;;;;;;;6.93;4.80;;;23.50;50.20;;;;;;5010067;28;20057;-62
2022/10/07 04:17:09;;;;;;;5.40;4.18;;;23.40;50.20;;;;;;5009629;28;20046;-62
2022/10/07 04:19:36;;;;;;;5.60;4.40;;;23.40;50.20;;;;;;5009818;28;20060;-62
2022/10/07 04:22:05;;;;;;;5.00;4.47;;;23.40;50.20;;;;;;5009226;28;20038;-62
2022/10/07 04:24:35;;;;;;;4.72;4.15;;;23.50;50.30;;;;;;5009293;28;20058;-62
2022/10/07 04:27:05;;;;;;;4.78;4.07;;;23.40;50.20;;;;;;5009138;28;20143;-63
2022/10/07 04:29:32;;;;;;;4.93;4.43;;;23.50;50.30;;;;;;5008592;28;20042;-62
2022/10/07 04:32:04;;;;;;;4.88;4.20;;;23.40;50.20;;;;;;5009916;28;20049;-63
2022/10/07 04:34:32;;;;;;;5.40;3.85;;;23.40;50.30;;;;;;5004199;28;20042;-62
2022/10/07 04:36:59;;;;;;;5.68;4.30;;;23.40;50.20;;;;;;5009495;28;20054;-62
2022/10/07 04:39:27;;;;;;;7.15;4.30;;;23.40;50.10;;;;;;5009086;28;20049;-62
2022/10/07 04:45:01;;;;;;;6.13;5.13;;;23.40;49.80;;;;;;5009372;28;20509;-62
2022/10/07 04:47:28;;;;;;;6.20;5.15;;;23.40;49.70;;;;;;5008640;28;20049;-62
2022/10/07 04:49:56;;;;;;;7.25;5.03;;;23.40;49.60;;;;;;5007262;28;20045;-62
2022/10/07 04:52:24;;;;;;;5.22;4.07;;;23.40;49.60;;;;;;5019578;28;20101;-62
2022/10/07 04:54:51;;;;;;;7.78;4.28;;;23.40;49.60;;;;;;5009968;28;20670;-62
2022/10/07 04:57:19;;;;;;;7.60;4.50;;;23.40;49.60;;;;;;5009234;28;20445;-62
2022/10/07 04:59:46;;;;;;;4.93;4.05;;;23.40;49.60;;;;;;5008679;28;20414;-62
2022/10/07 05:02:13;;;;;;;8.15;4.47;;;23.40;49.50;;;;;;5009892;28;20052;-63
2022/10/07 05:04:40;;;;;;;5.20;4.15;;;23.40;49.50;;;;;;5015581;28;20538;-62
2022/10/07 05:07:08;;;;;;;5.35;4.30;;;23.40;49.50;;;;;;5005237;28;20125;-62
2022/10/07 05:09:35;;;;;;;4.65;3.90;;;23.40;49.40;;;;;;5008256;28;20128;-62
2022/10/07 05:12:03;;;;;;;4.93;4.35;;;23.40;49.30;;;;;;5007443;28;20045;-62
2022/10/07 05:14:32;;;;;;;5.22;4.45;;;23.40;49.30;;;;;;5008478;28;20046;-62
2022/10/07 05:16:59;;;;;;;6.65;4.00;;;23.40;49.20;;;;;;5008270;28;20119;-62
2022/10/07 05:19:26;;;;;;;5.07;4.30;;;23.40;49.20;;;;;;5007771;28;20100;-62
2022/10/07 05:21:54;;;;;;;4.90;4.30;;;23.40;49.10;;;;;;5003889;28;20406;-63
2022/10/07 05:24:21;;;;;;;5.60;4.78;;;23.40;49.00;;;;;;5006943;28;20046;-63
2022/10/07 05:26:49;;;;;;;6.00;4.75;;;23.30;48.90;;;;;;5000540;28;20054;-61
2022/10/07 05:29:16;;;;;;;9.02;4.63;;;23.40;48.80;;;;;;5003392;28;20038;-59
2022/10/07 05:31:43;;;;;;;7.47;4.32;;;23.40;49.00;;;;;;5005802;28;20056;-59
2022/10/07 05:34:11;;;;;;;7.78;5.10;;;23.40;49.20;;;;;;4998381;28;20073;-60
2022/10/07 05:36:38;;;;;;;5.38;4.20;;;23.40;49.20;;;;;;5001499;28;20052;-60
2022/10/07 05:39:05;;;;;;;6.15;4.60;;;23.40;49.30;;;;;;4998445;28;20450;-60
2022/10/07 05:41:33;;;;;;;7.15;5.15;;;23.40;49.30;;;;;;4994428;28;20050;-59
2022/10/07 05:44:10;;;;;;;10.65;5.00;;;23.40;49.30;;;;;;4999789;28;20061;-59
2022/10/07 05:46:39;;;;;;;6.38;4.65;;;23.40;49.20;;;;;;5000208;28;20049;-59
2022/10/07 05:49:06;;;;;;;6.38;5.30;;;23.40;49.20;;;;;;5002446;28;20061;-60
2022/10/07 05:51:33;;;;;;;7.00;4.70;;;23.40;49.20;;;;;;4993107;28;20088;-61
2022/10/07 05:54:00;;;;;;;6.97;4.07;;;23.40;49.10;;;;;;4994701;28;20046;-62
2022/10/07 05:56:27;;;;;;;5.55;4.75;;;23.40;48.80;;;;;;4993506;28;20046;-63
2022/10/07 05:58:56;;;;;;;7.55;5.00;;;23.40;48.80;;;;;;4999778;28;20054;-63
2022/10/07 06:01:24;;;;;;;9.45;5.35;;;23.50;49.10;;;;;;5008663;28;20414;-64
2022/10/07 06:03:53;;;;;;;6.75;4.85;;;23.50;49.10;;;;;;4998884;28;20160;-63
2022/10/07 06:06:20;;;;;;;8.05;4.72;;;23.50;49.10;;;;;;4999835;28;20049;-60
2022/10/07 06:08:48;;;;;;;9.32;5.30;;;23.50;49.20;;;;;;4999469;28;20045;-59
2022/10/07 06:14:05;;;;;;;6.10;4.88;;;23.60;49.50;;;;;;5001977;28;20057;-61
2022/10/07 06:16:33;;;;;;;7.70;4.97;;;23.60;49.50;;;;;;5003469;28;20046;-62
2022/10/07 06:19:00;;;;;;;8.00;4.55;;;23.60;49.50;;;;;;5000622;28;20395;-61
2022/10/07 06:21:27;;;;;;;7.63;5.25;;;23.70;49.80;;;;;;5005759;28;20053;-61
2022/10/07 06:23:56;;;;;;;10.75;5.60;;;23.70;49.70;;;;;;5000107;28;20046;-62
2022/10/07 06:26:23;;;;;;;6.43;4.60;;;23.70;49.50;;;;;;4999332;28;20049;-61
2022/10/07 06:28:51;;;;;;;6.72;5.03;;;23.70;49.30;;;;;;5000887;28;20049;-61
2022/10/07 06:31:24;;;;;;;6.72;4.80;;;23.80;49.20;;;;;;4999439;28;20054;-63
2022/10/07 06:33:51;;;;;;;6.93;4.40;;;23.80;49.00;;;;;;5002869;28;20050;-63
2022/10/07 06:36:19;;;;;;;9.10;4.78;;;23.80;49.00;;;;;;4999105;28;20046;-62
2022/10/07 06:38:47;;;;;;;7.85;4.68;;;23.90;49.00;;;;;;4999532;28;20045;-61
2022/10/07 06:41:15;;;;;;;7.82;4.60;;;23.90;48.90;;;;;;5000351;28;20148;-61
2022/10/07 06:43:43;;;;;;;5.75;4.70;;;23.90;48.80;;;;;;4995821;28;20370;-60
2022/10/07 06:46:16;;;;;;;9.77;5.10;;;24.00;48.80;;;;;;4998571;28;20054;-63
2022/10/07 06:48:44;;;;;;;9.30;4.97;;;24.00;48.70;;;;;;4999816;28;20406;-62
2022/10/07 06:51:20;;;;;;;8.57;4.65;;;24.10;48.70;;;;;;4999623;28;20072;-61
2022/10/07 06:53:52;;;;;;;6.82;4.18;;;24.10;48.50;;;;;;5013866;28;20057;-62
2022/10/07 06:56:19;;;;;;;10.00;4.75;;;24.10;48.40;;;;;;4999549;28;20050;-61
2022/10/07 06:58:48;;;;;;;6.88;4.97;;;24.20;48.40;;;;;;4999700;28;20053;-62
2022/10/07 07:01:16;;;;;;;6.72;4.70;;;24.20;48.30;;;;;;5002169;28;20072;-63
2022/10/07 07:03:43;;;;;;;7.22;5.22;;;24.20;48.20;;;;;;5002486;28;20465;-60
2022/10/07 07:06:10;;;;;;;6.72;5.35;;;24.30;48.20;;;;;;5003135;28;20045;-61
2022/10/07 07:08:39;;;;;;;8.35;4.85;;;24.30;48.20;;;;;;5002854;28;20405;-61
2022/10/07 07:13:57;;;;;;;7.07;4.35;;;24.40;48.20;;;;;;4995975;28;20050;-60
2022/10/07 07:16:25;;;;;;;6.72;4.78;;;24.40;48.10;;;;;;4996507;28;20475;-62
2022/10/07 07:19:07;;;;;;;10.95;5.20;;;24.50;48.10;;;;;;4999126;28;20076;-62
2022/10/07 07:21:36;;;;;;;8.50;4.47;;;24.50;48.00;;;;;;5003230;28;20490;-62
2022/10/07 07:24:04;;;;;;;7.68;4.90;;;24.50;47.90;;;;;;4999169;28;20084;-61
2022/10/07 07:26:31;;;;;;;5.97;3.85;;;24.50;47.80;;;;;;4999635;28;20049;-62
2022/10/07 07:29:01;;;;;;;7.10;4.40;;;24.50;47.70;;;;;;5006278;28;20609;-61
2022/10/07 07:31:31;;;;;;;5.20;4.07;;;24.50;47.70;;;;;;5008957;28;20058;-61
2022/10/07 07:34:00;;;;;;;6.40;4.70;;;24.60;47.60;;;;;;5001156;28;20053;-62
2022/10/07 07:36:29;;;;;;;7.40;4.50;;;24.60;47.60;;;;;;5000426;28;20061;-62
2022/10/07 07:38:59;;;;;;;5.68;4.40;;;24.60;47.50;;;;;;5002198;28;20053;-62
2022/10/07 07:41:30;;;;;;;8.95;4.00;;;24.60;47.50;;;;;;5003804;28;20072;-62
2022/10/07 07:44:00;;;;;;;7.45;4.43;;;24.60;47.50;;;;;;5002093;28;20395;-62
2022/10/07 07:46:33;;;;;;;6.63;4.07;;;24.60;47.50;;;;;;4996215;28;20042;-61
2022/10/07 07:49:01;;;;;;;5.40;4.40;;;24.60;47.50;;;;;;5003480;28;20470;-61
2022/10/07 07:51:28;;;;;;;5.82;4.10;;;24.70;47.50;;;;;;4999895;28;20062;-61
2022/10/07 07:53:55;;;;;;;5.43;4.53;;;24.60;47.50;;;;;;5000847;28;20093;-60
2022/10/07 07:56:23;;;;;;;4.53;3.67;;;24.70;47.50;;;;;;5001926;28;20104;-60
2022/10/07 07:58:50;;;;;;;16.65;5.35;;;24.70;47.50;;;;;;4995075;28;20050;-62
2022/10/07 08:01:18;;;;;;;5.75;4.25;;;24.70;47.60;;;;;;4998422;28;20053;-61
2022/10/07 08:03:46;;;;;;;4.80;4.32;;;24.70;47.70;;;;;;4999334;28;20054;-59
2022/10/07 08:06:16;;;;;;;8.85;5.00;;;24.70;47.80;;;;;;5012341;28;20050;-60
2022/10/07 08:08:43;;;;;;;4.93;4.35;;;24.80;48.00;;;;;;5004435;28;20046;-60
2022/10/07 08:11:21;;;;;;;6.28;3.97;;;24.70;48.00;;;;;;5003196;28;20045;-60
2022/10/07 08:13:50;;;;;;;6.95;4.05;;;24.80;48.20;;;;;;5004555;28;20050;-61
2022/10/07 08:16:19;;;;;;;4.88;4.38;;;24.80;48.80;;;;;;5004009;28;20052;-62
2022/10/07 08:18:49;;;;;;;6.03;4.43;;;24.80;48.30;;;;;;5002576;28;20045;-64
2022/10/07 08:21:20;;;;;;;5.03;4.20;;;24.80;48.30;;;;;;5006980;28;20853;-61
2022/10/07 08:23:56;;;;;;;7.30;4.40;;;24.90;48.40;;;;;;5006278;28;20061;-61
2022/10/07 08:26:25;;;;;;;6.80;4.47;;;24.90;48.30;;;;;;5004801;28;20058;-60
2022/10/07 08:28:52;;;;;;;8.55;4.90;;;25.00;48.40;;;;;;5001036;28;20049;-59
2022/10/07 08:31:20;;;;;;;5.10;4.60;;;25.00;48.50;;;;;;4999751;28;20042;-60
2022/10/07 08:33:48;;;;;;;6.82;4.57;;;25.00;48.50;;;;;;5001559;28;20073;-59
2022/10/07 08:36:18;;;;;;;6.90;4.32;;;25.10;48.50;;;;;;5002175;28;20057;-62
2022/10/07 08:38:46;;;;;;;10.32;4.80;;;25.10;48.50;;;;;;5004580;28;20046;-62
2022/10/07 08:41:38;;;;;;;5.10;4.28;;;25.10;48.40;;;;;;5004459;28;20053;-62
2022/10/07 08:44:17;;;;;;;5.68;4.50;;;25.20;48.40;;;;;;5005907;28;20046;-61
2022/10/07 08:46:55;;;;;;;4.78;3.88;;;25.20;48.30;;;;;;5004695;28;20073;-61
2022/10/07 08:49:54;;;;;;;6.40;4.57;;;25.20;48.20;;;;;;5000074;28;20440;-62
2022/10/07 08:52:44;;;;;;;6.83;4.87;;;25.20;48.10;;;;;;5004092;28;20064;-60
2022/10/07 08:55:40;;;;;;;5.72;4.57;;;25.30;48.20;;;;;;5004790;28;20299;-61
2022/10/07 08:58:42;;;;;;;6.13;4.10;;;25.40;48.20;;;;;;5006534;28;20048;-61
2022/10/07 09:01:36;;;;;;;4.53;4.07;;;25.40;48.10;;;;;;5002081;28;20050;-60
2022/10/07 09:04:43;;;;;;;4.85;4.25;;;25.40;48.10;;;;;;5002944;28;20077;-60
2022/10/07 09:07:30;;;;;;;5.47;4.38;;;25.40;48.10;;;;;;4986774;28;20056;-60
2022/10/07 09:10:04;;;;;;;4.55;3.78;;;25.50;48.10;;;;;;5005030;28;20049;-60
2022/10/07 09:13:02;;;;;;;8.00;4.25;;;25.50;48.00;;;;;;5005044;28;20054;-59
2022/10/07 09:15:42;;;;;;;6.65;4.28;;;25.50;48.00;;;;;;5002809;28;20050;-60
2022/10/07 09:18:38;;;;;;;6.35;4.90;;;25.50;47.90;;;;;;5001505;28;20046;-61
2022/10/07 09:21:11;;;;;;;5.70;4.35;;;25.50;47.90;;;;;;5003860;28;20052;-61
2022/10/07 09:23:38;;;;;;;6.53;4.32;;;25.60;47.80;;;;;;4995441;28;20048;-60
2022/10/07 09:26:13;;;;;;;6.70;4.25;;;25.60;47.80;;;;;;5000417;28;20050;-59
2022/10/07 09:28:40;;;;;;;8.00;4.80;;;25.60;47.70;;;;;;5001522;28;20050;-60
2022/10/07 09:31:13;;;;;;;5.45;4.90;;;25.60;47.50;;;;;;5007141;28;20050;-60
2022/10/07 09:33:42;;;;;;;9.57;5.50;;;25.60;47.50;;;;;;5006432;28;20145;-61
2022/10/07 09:36:17;;;;;;;6.30;5.50;;;25.60;47.30;;;;;;5005926;28;20045;-60
2022/10/07 09:38:46;;;;;;;6.70;5.47;;;25.60;47.10;;;;;;5006880;28;20302;-60
2022/10/07 09:41:30;;;;;;;5.15;4.15;;;25.60;47.10;;;;;;5004939;28;20550;-59
2022/10/07 09:44:05;;;;;;;6.18;5.07;;;25.60;47.30;;;;;;5006085;28;20042;-59
2022/10/07 09:46:56;;;;;;;9.07;5.75;;;25.60;47.40;;;;;;5004590;28;20516;-60
2022/10/07 09:49:34;;;;;;;10.73;5.72;;;25.60;47.20;;;;;;5004302;28;20134;-61
2022/10/07 09:52:15;;;;;;;8.32;5.38;;;25.60;46.50;;;;;;5006235;28;20057;-60
2022/10/07 09:54:47;;;;;;;7.45;4.60;;;25.70;46.60;;;;;;4999294;28;20049;-59
2022/10/07 09:57:33;;;;;;;8.57;4.80;;;25.60;46.70;;;;;;5001085;28;20049;-59
2022/10/07 10:00:22;;;;;;;7.38;5.15;;;25.60;47.00;;;;;;5001683;28;20410;-60
2022/10/07 10:03:03;;;;;;;7.65;4.85;;;25.60;47.10;;;;;;5011162;28;20053;-60
2022/10/07 10:05:35;;;;;;;8.15;4.85;;;25.60;47.20;;;;;;5002561;28;20073;-59
2022/10/07 10:08:18;;;;;;;5.65;4.45;;;25.70;47.30;;;;;;5003039;28;20046;-60
2022/10/07 10:10:56;;;;;;;5.82;4.10;;;25.70;47.30;;;;;;5001000;28;20050;-60
2022/10/07 10:13:37;;;;;;;5.25;4.63;;;25.70;47.30;;;;;;5001625;28;20054;-59
2022/10/07 10:16:29;;;;;;;6.63;4.50;;;25.70;47.10;;;;;;5002071;28;20060;-58
2022/10/07 10:19:01;;;;;;;4.43;3.97;;;25.70;47.00;;;;;;5001923;28;20065;-60
2022/10/07 10:21:35;;;;;;;4.45;3.92;;;25.70;46.90;;;;;;5001755;28;20054;-60
2022/10/07 10:24:05;;;;;;;7.43;4.80;;;25.70;46.80;;;;;;5005313;28;20053;-59
2022/10/07 10:26:40;;;;;;;;;;;25.80;46.80;;;;;;4996865;28;20045;-60
2022/10/07 10:29:26;;;;;;;6.78;4.20;;;25.80;46.80;;;;;;4996914;28;19925;-61
2022/10/07 10:32:33;;;;;;;5.68;4.57;;;25.80;46.70;;;;;;4998696;28;20054;-60
2022/10/07 10:35:27;;;;;;;4.40;4.00;;;25.80;46.60;;;;;;5000064;28;20487;-59
2022/10/07 10:38:23;;;;;;;5.57;3.97;;;25.80;46.50;;;;;;5004028;28;20061;-61
2022/10/07 10:41:23;;;;;;;6.40;4.55;;;25.90;46.50;;;;;;4996916;28;20054;-60
2022/10/07 10:44:19;;;;;;;5.25;4.13;;;25.90;46.50;;;;;;4995462;28;20048;-61
2022/10/07 10:47:25;;;;;;;5.60;4.20;;;25.90;46.40;;;;;;5003654;28;20049;-64
2022/10/07 10:50:18;;;;;;;4.70;4.20;;;25.90;46.30;;;;;;5003957;28;20046;-61
2022/10/07 10:53:03;;;;;;;5.82;4.40;;;25.90;46.20;;;;;;5002169;28;20050;-60
2022/10/07 10:56:11;;;;;;;4.78;4.28;;;25.90;46.20;;;;;;5003150;28;20050;-60
2022/10/07 10:59:17;;;;;;;4.43;3.95;;;25.90;46.20;;;;;;5017434;28;20045;-59
2022/10/07 11:01:49;;;;;;;4.15;3.75;;;25.90;46.20;;;;;;5002769;28;20046;-59
2022/10/07 11:04:49;;;;;;;5.30;4.05;;;25.90;46.40;;;;;;4997713;28;20050;-61
2022/10/07 11:07:28;;;;;;;5.50;3.70;;;26.00;46.40;;;;;;5001483;28;20522;-59
2022/10/07 11:10:12;;;;;;;5.55;3.97;;;26.00;46.40;;;;;;5000880;28;20045;-60
2022/10/07 11:12:43;;;;;;;4.95;4.13;;;26.10;46.60;;;;;;5004592;28;20049;-63
2022/10/07 11:15:35;;;;;;;4.18;3.88;;;26.10;46.70;;;;;;5006323;28;20046;-64
2022/10/07 11:18:09;;;;;;;4.68;3.72;;;26.10;46.70;;;;;;5003845;28;20532;-63
2022/10/07 11:20:47;;;;;;;4.55;4.15;;;26.20;46.90;;;;;;5006144;28;20050;-62
2022/10/07 11:23:40;;;;;;;6.68;5.03;;;26.20;46.80;;;;;;5004769;28;20546;-62
2022/10/07 11:26:36;;;;;;;4.13;3.75;;;26.20;46.70;;;;;;5004237;28;20052;-62
2022/10/07 11:29:17;;;;;;;5.32;3.92;;;26.30;46.70;;;;;;5003679;28;20060;-60
2022/10/07 11:31:51;;;;;;;4.07;3.67;;;26.30;46.70;;;;;;5002207;28;20042;-61
2022/10/07 11:34:26;;;;;;;9.13;4.07;;;26.30;46.50;;;;;;5003280;28;20504;-61
2022/10/07 11:37:05;;;;;;;7.65;4.15;;;26.40;46.50;;;;;;5001361;28;20049;-61
2022/10/07 11:39:36;;;;;;;;;;;26.40;46.50;;;;;;5001432;28;20136;-62
2022/10/07 11:42:16;;;;;;;5.63;4.57;;;26.50;46.50;;;;;;5004728;28;19932;-60
2022/10/07 11:44:52;;;;;;;;;;;26.50;46.50;;;;;;5002598;28;20037;-59
2022/10/07 11:47:25;;;;;;;6.05;4.30;;;26.50;46.50;;;;;;5000294;28;20273;-61
2022/10/07 11:50:13;;;;;;;5.28;3.63;;;26.50;46.30;;;;;;5004152;28;20041;-60
2022/10/07 11:52:47;;;;;;;5.85;4.43;;;26.50;46.10;;;;;;5005387;28;20505;-60
2022/10/07 11:55:34;;;;;;;5.07;3.63;;;26.50;45.90;;;;;;5004972;28;20053;-61
2022/10/07 11:58:03;;;;;;;5.18;3.58;;;26.50;46.00;;;;;;5003932;28;20506;-60
2022/10/07 12:00:35;;;;;;;4.38;3.63;;;26.50;46.10;;;;;;5005968;28;20052;-60
2022/10/07 12:03:43;;;;;;;4.50;4.13;;;26.50;46.10;;;;;;5002478;28;20064;-61
2022/10/07 12:06:10;;;;;;;7.72;3.78;;;26.60;46.10;;;;;;4991077;28;20054;-60
2022/10/07 12:08:40;;;;;;;4.93;4.00;;;26.60;46.10;;;;;;5006488;28;20064;-60
2022/10/07 12:11:38;;;;;;;6.45;3.65;;;26.60;46.00;;;;;;5003384;28;20092;-60
2022/10/07 12:14:34;;;;;;;4.95;4.15;;;26.60;45.90;;;;;;5005975;28;20046;-58
2022/10/07 12:17:21;;;;;;;5.65;4.20;;;26.60;45.80;;;;;;5003557;28;20050;-57
2022/10/07 12:20:28;;;;;;;7.30;4.00;;;26.60;45.70;;;;;;4996010;28;20050;-57
2022/10/07 12:23:35;;;;;;;5.50;3.83;;;26.60;45.60;;;;;;5003571;28;20046;-58
2022/10/07 12:26:24;;;;;;;6.15;3.70;;;26.60;45.50;;;;;;5004291;28;20049;-58
2022/10/07 12:28:52;;;;;;;6.63;4.05;;;26.60;45.40;;;;;;5010704;28;20061;-57
2022/10/07 12:31:45;;;;;;;6.72;4.10;;;26.50;45.30;;;;;;5011040;28;20077;-58
2022/10/07 12:34:34;;;;;;;4.00;3.65;;;26.50;45.30;;;;;;5007723;28;20129;-57
2022/10/07 12:37:40;;;;;;;6.20;3.85;;;26.50;45.30;;;;;;5004062;28;20046;-57
2022/10/07 12:40:16;;;;;;;4.43;3.97;;;26.50;45.40;;;;;;5008867;28;20053;-58
2022/10/07 12:42:52;;;;;;;4.30;3.85;;;26.50;45.40;;;;;;5010746;28;20410;-57
2022/10/07 12:45:22;;;;;;;9.18;4.10;;;26.50;45.50;;;;;;5010533;28;20649;-57
2022/10/07 12:47:54;;;;;;;3.88;3.30;;;26.50;45.40;;;;;;5010497;28;20054;-58
2022/10/07 12:50:22;;;;;;;4.65;4.07;;;26.50;45.50;;;;;;5010152;28;20050;-58
2022/10/07 12:52:54;;;;;;;4.38;3.97;;;26.50;45.60;;;;;;5010494;28;20054;-58
2022/10/07 12:55:37;;;;;;;4.95;3.97;;;26.50;45.60;;;;;;5009811;28;20046;-57
2022/10/07 13:01:37;;;;;;;4.65;3.83;;;26.50;45.70;;;;;;5010255;28;20046;-57
2022/10/07 13:04:42;;;;;;;6.47;3.78;;;26.50;45.60;;;;;;5010716;28;20120;-57
2022/10/07 13:07:44;;;;;;;5.80;3.72;;;26.40;45.70;;;;;;5008117;28;20072;-57
2022/10/07 13:10:41;;;;;;;3.92;3.63;;;26.40;45.70;;;;;;4998151;28;20053;-57
2022/10/07 13:13:17;;;;;;;4.78;3.97;;;26.50;45.60;;;;;;5008710;28;20042;-57
2022/10/07 13:15:56;;;;;;;5.25;3.40;;;26.40;45.80;;;;;;5007997;28;20141;-58
2022/10/07 13:18:47;;;;;;;4.47;3.97;;;26.50;46.40;;;;;;5002484;28;20056;-57
2022/10/07 13:21:38;;;;;;;4.57;3.80;;;26.50;46.90;;;;;;4997714;28;20038;-57
2022/10/07 13:24:13;;;;;;;3.70;3.40;;;26.40;46.80;;;;;;4998599;28;20041;-57
2022/10/07 13:26:44;;;;;;;5.03;4.13;;;26.40;46.80;;;;;;5008058;28;20425;-57
2022/10/07 13:29:24;;;;;;;4.53;3.78;;;26.40;46.70;;;;;;5007932;28;20434;-57
2022/10/07 13:32:13;;;;;;;4.75;3.30;;;26.40;46.70;;;;;;5002031;28;20049;-57
2022/10/07 13:34:40;;;;;;;4.60;3.90;;;26.40;46.60;;;;;;4995538;28;20042;-57
2022/10/07 13:37:27;;;;;;;4.05;3.75;;;26.40;46.40;;;;;;5008503;28;20457;-57
2022/10/07 13:39:56;;;;;;;4.68;3.75;;;26.40;46.40;;;;;;5001495;28;20046;-57
2022/10/07 13:42:28;;;;;;;4.25;3.63;;;26.40;46.30;;;;;;5000798;28;20050;-57
2022/10/07 13:45:02;;;;;;;4.47;4.07;;;26.40;46.30;;;;;;5008395;28;20065;-57